Eastend, Virginia
Current Conditions -  °F | °C
As of 4:54 PM on Monday 24 Nov 2014 (Local Time) from KRIC Reporting Station
Scattered Clouds Scattered Clouds  
Wind Chill: 22°   Ceiling: Unl
Heat Index: 22°   Visibility: 10mi
Dew Point: 14°   Wind: 18mph
Humidity: 63%   Direction: 200°SSW
Pressure: 29.72"   Gusts: 25mph
Location:  37.556°N, 77.3779°W
Report Text: KRIC 242154Z 20016G22KT 10SM FEW040 SCT100 SCT300 22/14 A2972 RMK AO2 SLP068 T02170144
Loading
Personal Weather Stations






























Interactive Weather Map New forecast layout! Learn more

10-Day Weather Forecast

Advertisements
Track Severe Weather on mobile